<?xml version="1.0" encoding="UTF-8" standalone="no" ?>
<gpx xmlns="http://www.topografix.com/GPX/1/1" xmlns:xsi="http://www.w3.org/2001/XMLSchema-instance" xsi:schemaLocation="http://www.topografix.com/GPX/1/1 http://www.topografix.com/GPX/1/1/gpx.xsd" version="1.1" creator="VisuGPX - https://www.visugpx.com">
  <metadata>
    <name>Via podiensis Le Puy-Cahors</name>
  </metadata>
  <trk>
    <name><![CDATA[Via podiensis Le Puy-Cahors_3]]></name>
    <trkseg>
      <trkpt lat="44.48584" lon="1.83896">
        <ele>159.3046875</ele>
        <time>2012-06-07T21:16:41Z</time>
      </trkpt>
      <trkpt lat="44.48587" lon="1.83938">
        <ele>156.3359375</ele>
        <time>2012-06-07T21:17:01Z</time>
      </trkpt>
      <trkpt lat="44.48287" lon="1.83913">
        <ele>145.984375</ele>
        <time>2012-06-07T21:17:21Z</time>
      </trkpt>
      <trkpt lat="44.48164" lon="1.83913">
        <ele>142.8515625</ele>
        <time>2012-06-07T21:17:41Z</time>
      </trkpt>
      <trkpt lat="44.48014" lon="1.83778">
        <ele>143.8828125</ele>
        <time>2012-06-07T21:18:01Z</time>
      </trkpt>
      <trkpt lat="44.47846" lon="1.83616">
        <ele>190.96484375</ele>
        <time>2012-06-07T21:18:21Z</time>
      </trkpt>
      <trkpt lat="44.47792" lon="1.83619">
        <ele>188.6015625</ele>
        <time>2012-06-07T21:18:41Z</time>
      </trkpt>
      <trkpt lat="44.47743" lon="1.8364">
        <ele>181.61328125</ele>
        <time>2012-06-07T21:19:01Z</time>
      </trkpt>
      <trkpt lat="44.47683" lon="1.83642">
        <ele>179.9453125</ele>
        <time>2012-06-07T21:19:21Z</time>
      </trkpt>
      <trkpt lat="44.47615" lon="1.83664">
        <ele>177.41015625</ele>
        <time>2012-06-07T21:19:41Z</time>
      </trkpt>
      <trkpt lat="44.47587" lon="1.83655">
        <ele>180.90625</ele>
        <time>2012-06-07T21:20:01Z</time>
      </trkpt>
      <trkpt lat="44.47517" lon="1.83609">
        <ele>180.91015625</ele>
        <time>2012-06-07T21:20:21Z</time>
      </trkpt>
      <trkpt lat="44.47433" lon="1.83634">
        <ele>183.69921875</ele>
        <time>2012-06-07T21:20:41Z</time>
      </trkpt>
      <trkpt lat="44.47239" lon="1.83762">
        <ele>181.15234375</ele>
        <time>2012-06-07T21:21:01Z</time>
      </trkpt>
      <trkpt lat="44.47106" lon="1.83829">
        <ele>174.90234375</ele>
        <time>2012-06-07T21:21:21Z</time>
      </trkpt>
      <trkpt lat="44.46928" lon="1.83843">
        <ele>156.94921875</ele>
        <time>2012-06-07T21:21:41Z</time>
      </trkpt>
      <trkpt lat="44.46878" lon="1.83834">
        <ele>155.15234375</ele>
        <time>2012-06-07T21:22:01Z</time>
      </trkpt>
      <trkpt lat="44.46807" lon="1.83808">
        <ele>154</ele>
        <time>2012-06-07T21:22:21Z</time>
      </trkpt>
      <trkpt lat="44.46812" lon="1.83784">
        <ele>154</ele>
        <time>2012-06-07T21:22:41Z</time>
      </trkpt>
      <trkpt lat="44.46805" lon="1.83746">
        <ele>154</ele>
        <time>2012-06-07T21:23:01Z</time>
      </trkpt>
      <trkpt lat="44.46828" lon="1.83516">
        <ele>151.953125</ele>
        <time>2012-06-07T21:23:21Z</time>
      </trkpt>
      <trkpt lat="44.4684" lon="1.83502">
        <ele>151.87109375</ele>
        <time>2012-06-07T21:23:41Z</time>
      </trkpt>
      <trkpt lat="44.46867" lon="1.8326">
        <ele>147</ele>
        <time>2012-06-07T21:24:01Z</time>
      </trkpt>
      <trkpt lat="44.46862" lon="1.83059">
        <ele>143</ele>
        <time>2012-06-07T21:24:21Z</time>
      </trkpt>
      <trkpt lat="44.46854" lon="1.8293">
        <ele>154.1484375</ele>
        <time>2012-06-07T21:24:41Z</time>
      </trkpt>
      <trkpt lat="44.46829" lon="1.8288">
        <ele>168.90625</ele>
        <time>2012-06-07T21:25:01Z</time>
      </trkpt>
      <trkpt lat="44.46755" lon="1.82858">
        <ele>170.0546875</ele>
        <time>2012-06-07T21:25:21Z</time>
      </trkpt>
      <trkpt lat="44.46623" lon="1.82884">
        <ele>161.546875</ele>
        <time>2012-06-07T21:25:41Z</time>
      </trkpt>
      <trkpt lat="44.46593" lon="1.8284">
        <ele>166.94921875</ele>
        <time>2012-06-07T21:26:01Z</time>
      </trkpt>
      <trkpt lat="44.46561" lon="1.8275">
        <ele>170.26953125</ele>
        <time>2012-06-07T21:26:21Z</time>
      </trkpt>
      <trkpt lat="44.46559" lon="1.82774">
        <ele>170.63671875</ele>
        <time>2012-06-07T21:26:41Z</time>
      </trkpt>
      <trkpt lat="44.46582" lon="1.82843">
        <ele>167.484375</ele>
        <time>2012-06-07T21:27:01Z</time>
      </trkpt>
      <trkpt lat="44.46571" lon="1.82848">
        <ele>167.79296875</ele>
        <time>2012-06-07T21:27:21Z</time>
      </trkpt>
      <trkpt lat="44.46548" lon="1.82831">
        <ele>171.26171875</ele>
        <time>2012-06-07T21:27:41Z</time>
      </trkpt>
      <trkpt lat="44.46511" lon="1.82758">
        <ele>175.609375</ele>
        <time>2012-06-07T21:28:01Z</time>
      </trkpt>
      <trkpt lat="44.46397" lon="1.8262">
        <ele>179.24609375</ele>
        <time>2012-06-07T21:28:21Z</time>
      </trkpt>
      <trkpt lat="44.46317" lon="1.82573">
        <ele>184.86328125</ele>
        <time>2012-06-07T21:28:41Z</time>
      </trkpt>
      <trkpt lat="44.46259" lon="1.82518">
        <ele>190.7109375</ele>
        <time>2012-06-07T21:29:01Z</time>
      </trkpt>
      <trkpt lat="44.46207" lon="1.82453">
        <ele>194.671875</ele>
        <time>2012-06-07T21:29:21Z</time>
      </trkpt>
      <trkpt lat="44.46163" lon="1.82447">
        <ele>198.140625</ele>
        <time>2012-06-07T21:29:41Z</time>
      </trkpt>
      <trkpt lat="44.46103" lon="1.82388">
        <ele>202.3125</ele>
        <time>2012-06-07T21:30:01Z</time>
      </trkpt>
      <trkpt lat="44.46035" lon="1.82241">
        <ele>206.6953125</ele>
        <time>2012-06-07T21:30:21Z</time>
      </trkpt>
      <trkpt lat="44.46007" lon="1.82225">
        <ele>211.94921875</ele>
        <time>2012-06-07T21:30:41Z</time>
      </trkpt>
      <trkpt lat="44.45941" lon="1.82233">
        <ele>223.5078125</ele>
        <time>2012-06-07T21:31:01Z</time>
      </trkpt>
      <trkpt lat="44.45816" lon="1.82347">
        <ele>242.01953125</ele>
        <time>2012-06-07T21:31:21Z</time>
      </trkpt>
      <trkpt lat="44.45796" lon="1.82355">
        <ele>243.3046875</ele>
        <time>2012-06-07T21:31:41Z</time>
      </trkpt>
      <trkpt lat="44.45765" lon="1.82327">
        <ele>243.36328125</ele>
        <time>2012-06-07T21:32:01Z</time>
      </trkpt>
      <trkpt lat="44.45726" lon="1.82335">
        <ele>247.8359375</ele>
        <time>2012-06-07T21:32:21Z</time>
      </trkpt>
      <trkpt lat="44.457" lon="1.82411">
        <ele>256.6171875</ele>
        <time>2012-06-07T21:32:41Z</time>
      </trkpt>
      <trkpt lat="44.45621" lon="1.82493">
        <ele>268.75390625</ele>
        <time>2012-06-07T21:33:01Z</time>
      </trkpt>
      <trkpt lat="44.45602" lon="1.82539">
        <ele>276.85546875</ele>
        <time>2012-06-07T21:33:21Z</time>
      </trkpt>
      <trkpt lat="44.45552" lon="1.82545">
        <ele>280.34765625</ele>
        <time>2012-06-07T21:33:41Z</time>
      </trkpt>
      <trkpt lat="44.4548" lon="1.82591">
        <ele>291.84375</ele>
        <time>2012-06-07T21:34:01Z</time>
      </trkpt>
      <trkpt lat="44.4541" lon="1.82668">
        <ele>299.71484375</ele>
        <time>2012-06-07T21:34:21Z</time>
      </trkpt>
      <trkpt lat="44.45349" lon="1.82804">
        <ele>310.0859375</ele>
        <time>2012-06-07T21:34:41Z</time>
      </trkpt>
      <trkpt lat="44.45307" lon="1.82885">
        <ele>316.125</ele>
        <time>2012-06-07T21:35:01Z</time>
      </trkpt>
      <trkpt lat="44.45221" lon="1.82925">
        <ele>320.7109375</ele>
        <time>2012-06-07T21:35:21Z</time>
      </trkpt>
      <trkpt lat="44.45087" lon="1.82887">
        <ele>335.33984375</ele>
        <time>2012-06-07T21:35:41Z</time>
      </trkpt>
      <trkpt lat="44.45053" lon="1.82884">
        <ele>338.75</ele>
        <time>2012-06-07T21:36:01Z</time>
      </trkpt>
      <trkpt lat="44.4477" lon="1.82966">
        <ele>339.75</ele>
        <time>2012-06-07T21:36:21Z</time>
      </trkpt>
      <trkpt lat="44.44628" lon="1.82914">
        <ele>334</ele>
        <time>2012-06-07T21:36:41Z</time>
      </trkpt>
      <trkpt lat="44.44604" lon="1.82899">
        <ele>333.71484375</ele>
        <time>2012-06-07T21:37:01Z</time>
      </trkpt>
      <trkpt lat="44.44522" lon="1.82888">
        <ele>330.625</ele>
        <time>2012-06-07T21:37:21Z</time>
      </trkpt>
      <trkpt lat="44.44488" lon="1.8286">
        <ele>332.14453125</ele>
        <time>2012-06-07T21:37:41Z</time>
      </trkpt>
      <trkpt lat="44.44447" lon="1.82851">
        <ele>331.78515625</ele>
        <time>2012-06-07T21:38:01Z</time>
      </trkpt>
      <trkpt lat="44.4437" lon="1.82849">
        <ele>334.96484375</ele>
        <time>2012-06-07T21:38:21Z</time>
      </trkpt>
      <trkpt lat="44.44256" lon="1.82887">
        <ele>339.58203125</ele>
        <time>2012-06-07T21:38:41Z</time>
      </trkpt>
      <trkpt lat="44.44118" lon="1.82998">
        <ele>350.8828125</ele>
        <time>2012-06-07T21:39:01Z</time>
      </trkpt>
      <trkpt lat="44.44036" lon="1.83086">
        <ele>353.9765625</ele>
        <time>2012-06-07T21:39:21Z</time>
      </trkpt>
      <trkpt lat="44.43977" lon="1.83216">
        <ele>350.875</ele>
        <time>2012-06-07T21:39:41Z</time>
      </trkpt>
      <trkpt lat="44.4395" lon="1.83111">
        <ele>345.36328125</ele>
        <time>2012-06-07T21:40:01Z</time>
      </trkpt>
      <trkpt lat="44.43885" lon="1.8302">
        <ele>330.25390625</ele>
        <time>2012-06-07T21:40:21Z</time>
      </trkpt>
      <trkpt lat="44.43856" lon="1.82935">
        <ele>323.92578125</ele>
        <time>2012-06-07T21:40:41Z</time>
      </trkpt>
      <trkpt lat="44.4385" lon="1.82899">
        <ele>322.3046875</ele>
        <time>2012-06-07T21:41:01Z</time>
      </trkpt>
      <trkpt lat="44.43789" lon="1.82711">
        <ele>305.34765625</ele>
        <time>2012-06-07T21:41:21Z</time>
      </trkpt>
      <trkpt lat="44.43773" lon="1.82734">
        <ele>305.5859375</ele>
        <time>2012-06-07T21:41:41Z</time>
      </trkpt>
      <trkpt lat="44.43736" lon="1.82721">
        <ele>301.96484375</ele>
        <time>2012-06-07T21:42:01Z</time>
      </trkpt>
      <trkpt lat="44.43663" lon="1.82757">
        <ele>306.2734375</ele>
        <time>2012-06-07T21:42:21Z</time>
      </trkpt>
      <trkpt lat="44.43631" lon="1.8276">
        <ele>307.8515625</ele>
        <time>2012-06-07T21:42:41Z</time>
      </trkpt>
      <trkpt lat="44.43504" lon="1.82804">
        <ele>312.42578125</ele>
        <time>2012-06-07T21:43:01Z</time>
      </trkpt>
      <trkpt lat="44.43407" lon="1.82824">
        <ele>310.53125</ele>
        <time>2012-06-07T21:43:21Z</time>
      </trkpt>
      <trkpt lat="44.43335" lon="1.82728">
        <ele>305.0234375</ele>
        <time>2012-06-07T21:43:41Z</time>
      </trkpt>
      <trkpt lat="44.43311" lon="1.82661">
        <ele>308.24609375</ele>
        <time>2012-06-07T21:44:01Z</time>
      </trkpt>
      <trkpt lat="44.43187" lon="1.82548">
        <ele>313.69921875</ele>
        <time>2012-06-07T21:44:21Z</time>
      </trkpt>
      <trkpt lat="44.43149" lon="1.82544">
        <ele>319.859375</ele>
        <time>2012-06-07T21:44:41Z</time>
      </trkpt>
      <trkpt lat="44.42969" lon="1.82571">
        <ele>332.0546875</ele>
        <time>2012-06-07T21:45:01Z</time>
      </trkpt>
      <trkpt lat="44.4292" lon="1.82584">
        <ele>327.3046875</ele>
        <time>2012-06-07T21:45:21Z</time>
      </trkpt>
      <trkpt lat="44.42863" lon="1.82582">
        <ele>320.5703125</ele>
        <time>2012-06-07T21:45:41Z</time>
      </trkpt>
      <trkpt lat="44.42783" lon="1.82625">
        <ele>315.796875</ele>
        <time>2012-06-07T21:46:01Z</time>
      </trkpt>
      <trkpt lat="44.42728" lon="1.82687">
        <ele>314.91796875</ele>
        <time>2012-06-07T21:46:21Z</time>
      </trkpt>
      <trkpt lat="44.42677" lon="1.82779">
        <ele>317.18359375</ele>
        <time>2012-06-07T21:46:41Z</time>
      </trkpt>
      <trkpt lat="44.42645" lon="1.82803">
        <ele>318.640625</ele>
        <time>2012-06-07T21:47:01Z</time>
      </trkpt>
      <trkpt lat="44.42605" lon="1.82805">
        <ele>320.76953125</ele>
        <time>2012-06-07T21:47:21Z</time>
      </trkpt>
      <trkpt lat="44.42557" lon="1.82823">
        <ele>324.53125</ele>
        <time>2012-06-07T21:47:41Z</time>
      </trkpt>
      <trkpt lat="44.42516" lon="1.82821">
        <ele>328.94921875</ele>
        <time>2012-06-07T21:48:01Z</time>
      </trkpt>
      <trkpt lat="44.42429" lon="1.82692">
        <ele>328.83203125</ele>
        <time>2012-06-07T21:48:21Z</time>
      </trkpt>
      <trkpt lat="44.42409" lon="1.82683">
        <ele>328.9765625</ele>
        <time>2012-06-07T21:48:41Z</time>
      </trkpt>
      <trkpt lat="44.4237" lon="1.8268">
        <ele>330.50390625</ele>
        <time>2012-06-07T21:49:01Z</time>
      </trkpt>
      <trkpt lat="44.42369" lon="1.82656">
        <ele>328.23046875</ele>
        <time>2012-06-07T21:49:21Z</time>
      </trkpt>
      <trkpt lat="44.42394" lon="1.82608">
        <ele>324.1484375</ele>
        <time>2012-06-07T21:49:41Z</time>
      </trkpt>
      <trkpt lat="44.42389" lon="1.82531">
        <ele>319.203125</ele>
        <time>2012-06-07T21:50:01Z</time>
      </trkpt>
      <trkpt lat="44.42402" lon="1.82382">
        <ele>306.54296875</ele>
        <time>2012-06-07T21:50:21Z</time>
      </trkpt>
      <trkpt lat="44.42383" lon="1.82263">
        <ele>302.77734375</ele>
        <time>2012-06-07T21:50:41Z</time>
      </trkpt>
      <trkpt lat="44.42403" lon="1.8206">
        <ele>307.06640625</ele>
        <time>2012-06-07T21:51:01Z</time>
      </trkpt>
      <trkpt lat="44.424" lon="1.81961">
        <ele>306.9140625</ele>
        <time>2012-06-07T21:51:21Z</time>
      </trkpt>
      <trkpt lat="44.42366" lon="1.81861">
        <ele>307.18359375</ele>
        <time>2012-06-07T21:51:41Z</time>
      </trkpt>
      <trkpt lat="44.42368" lon="1.81776">
        <ele>306.30078125</ele>
        <time>2012-06-07T21:52:01Z</time>
      </trkpt>
      <trkpt lat="44.42391" lon="1.81699">
        <ele>305.92578125</ele>
        <time>2012-06-07T21:52:21Z</time>
      </trkpt>
      <trkpt lat="44.42434" lon="1.81671">
        <ele>306.78125</ele>
        <time>2012-06-07T21:52:41Z</time>
      </trkpt>
      <trkpt lat="44.42473" lon="1.81528">
        <ele>304.9609375</ele>
        <time>2012-06-07T21:53:01Z</time>
      </trkpt>
      <trkpt lat="44.42353" lon="1.81455">
        <ele>297.19140625</ele>
        <time>2012-06-07T21:53:21Z</time>
      </trkpt>
      <trkpt lat="44.42328" lon="1.81443">
        <ele>296.98828125</ele>
        <time>2012-06-07T21:53:41Z</time>
      </trkpt>
      <trkpt lat="44.42287" lon="1.8136">
        <ele>299.5078125</ele>
        <time>2012-06-07T21:54:01Z</time>
      </trkpt>
      <trkpt lat="44.42169" lon="1.81395">
        <ele>301.38671875</ele>
        <time>2012-06-07T21:54:21Z</time>
      </trkpt>
      <trkpt lat="44.42157" lon="1.81391">
        <ele>301.8828125</ele>
        <time>2012-06-07T21:54:41Z</time>
      </trkpt>
      <trkpt lat="44.42067" lon="1.8144">
        <ele>303.28125</ele>
        <time>2012-06-07T21:55:01Z</time>
      </trkpt>
      <trkpt lat="44.42004" lon="1.81424">
        <ele>306.12109375</ele>
        <time>2012-06-07T21:55:21Z</time>
      </trkpt>
      <trkpt lat="44.41967" lon="1.81437">
        <ele>309.25</ele>
        <time>2012-06-07T21:55:41Z</time>
      </trkpt>
      <trkpt lat="44.41896" lon="1.81438">
        <ele>314.34375</ele>
        <time>2012-06-07T21:56:01Z</time>
      </trkpt>
      <trkpt lat="44.41858" lon="1.81412">
        <ele>315.4921875</ele>
        <time>2012-06-07T21:56:21Z</time>
      </trkpt>
      <trkpt lat="44.41824" lon="1.81418">
        <ele>316.9296875</ele>
        <time>2012-06-07T21:56:41Z</time>
      </trkpt>
      <trkpt lat="44.41734" lon="1.81402">
        <ele>316.515625</ele>
        <time>2012-06-07T21:57:01Z</time>
      </trkpt>
      <trkpt lat="44.4171" lon="1.81379">
        <ele>317.03125</ele>
        <time>2012-06-07T21:57:21Z</time>
      </trkpt>
      <trkpt lat="44.4166" lon="1.81281">
        <ele>320.73046875</ele>
        <time>2012-06-07T21:57:41Z</time>
      </trkpt>
      <trkpt lat="44.41612" lon="1.81277">
        <ele>322.53515625</ele>
        <time>2012-06-07T21:58:01Z</time>
      </trkpt>
      <trkpt lat="44.41568" lon="1.81244">
        <ele>322.6328125</ele>
        <time>2012-06-07T21:58:21Z</time>
      </trkpt>
      <trkpt lat="44.41528" lon="1.81141">
        <ele>318.484375</ele>
        <time>2012-06-07T21:58:41Z</time>
      </trkpt>
      <trkpt lat="44.41511" lon="1.81107">
        <ele>316.6484375</ele>
        <time>2012-06-07T21:59:01Z</time>
      </trkpt>
      <trkpt lat="44.41501" lon="1.81024">
        <ele>313.37890625</ele>
        <time>2012-06-07T21:59:21Z</time>
      </trkpt>
      <trkpt lat="44.41508" lon="1.80918">
        <ele>310.73828125</ele>
        <time>2012-06-07T21:59:41Z</time>
      </trkpt>
      <trkpt lat="44.41476" lon="1.80846">
        <ele>307.5703125</ele>
        <time>2012-06-07T22:00:01Z</time>
      </trkpt>
      <trkpt lat="44.41457" lon="1.80731">
        <ele>305.421875</ele>
        <time>2012-06-07T22:00:21Z</time>
      </trkpt>
      <trkpt lat="44.41476" lon="1.80627">
        <ele>301.4296875</ele>
        <time>2012-06-07T22:00:41Z</time>
      </trkpt>
      <trkpt lat="44.41448" lon="1.8053">
        <ele>302.484375</ele>
        <time>2012-06-07T22:01:01Z</time>
      </trkpt>
      <trkpt lat="44.4136" lon="1.80382">
        <ele>300.3828125</ele>
        <time>2012-06-07T22:01:21Z</time>
      </trkpt>
      <trkpt lat="44.41301" lon="1.80335">
        <ele>295.79296875</ele>
        <time>2012-06-07T22:01:41Z</time>
      </trkpt>
      <trkpt lat="44.41295" lon="1.80306">
        <ele>293.97265625</ele>
        <time>2012-06-07T22:02:01Z</time>
      </trkpt>
      <trkpt lat="44.41301" lon="1.80244">
        <ele>291.95703125</ele>
        <time>2012-06-07T22:02:21Z</time>
      </trkpt>
      <trkpt lat="44.41283" lon="1.80205">
        <ele>289.40625</ele>
        <time>2012-06-07T22:02:41Z</time>
      </trkpt>
      <trkpt lat="44.4125" lon="1.80196">
        <ele>286.8203125</ele>
        <time>2012-06-07T22:03:01Z</time>
      </trkpt>
      <trkpt lat="44.41126" lon="1.80279">
        <ele>296.20703125</ele>
        <time>2012-06-07T22:03:21Z</time>
      </trkpt>
      <trkpt lat="44.41105" lon="1.80342">
        <ele>299.38671875</ele>
        <time>2012-06-07T22:03:41Z</time>
      </trkpt>
      <trkpt lat="44.41044" lon="1.8039">
        <ele>303.98046875</ele>
        <time>2012-06-07T22:04:01Z</time>
      </trkpt>
      <trkpt lat="44.41011" lon="1.80442">
        <ele>305.5390625</ele>
        <time>2012-06-07T22:04:21Z</time>
      </trkpt>
      <trkpt lat="44.40857" lon="1.80569">
        <ele>318.8359375</ele>
        <time>2012-06-07T22:04:41Z</time>
      </trkpt>
      <trkpt lat="44.40753" lon="1.8069">
        <ele>329.28515625</ele>
        <time>2012-06-07T22:05:01Z</time>
      </trkpt>
      <trkpt lat="44.40731" lon="1.80691">
        <ele>332.01953125</ele>
        <time>2012-06-07T22:05:21Z</time>
      </trkpt>
      <trkpt lat="44.40717" lon="1.80677">
        <ele>333.96875</ele>
        <time>2012-06-07T22:05:41Z</time>
      </trkpt>
      <trkpt lat="44.40616" lon="1.80625">
        <ele>337.453125</ele>
        <time>2012-06-07T22:06:01Z</time>
      </trkpt>
      <trkpt lat="44.40583" lon="1.80573">
        <ele>335.76171875</ele>
        <time>2012-06-07T22:06:21Z</time>
      </trkpt>
      <trkpt lat="44.40581" lon="1.80503">
        <ele>332.45703125</ele>
        <time>2012-06-07T22:06:41Z</time>
      </trkpt>
      <trkpt lat="44.4053" lon="1.80452">
        <ele>323.015625</ele>
        <time>2012-06-07T22:07:01Z</time>
      </trkpt>
      <trkpt lat="44.40515" lon="1.80453">
        <ele>321.1640625</ele>
        <time>2012-06-07T22:07:21Z</time>
      </trkpt>
      <trkpt lat="44.40463" lon="1.80486">
        <ele>319.4921875</ele>
        <time>2012-06-07T22:07:41Z</time>
      </trkpt>
      <trkpt lat="44.40432" lon="1.80489">
        <ele>317.59765625</ele>
        <time>2012-06-07T22:08:01Z</time>
      </trkpt>
      <trkpt lat="44.40402" lon="1.805">
        <ele>316.97265625</ele>
        <time>2012-06-07T22:08:21Z</time>
      </trkpt>
      <trkpt lat="44.40382" lon="1.80478">
        <ele>316.875</ele>
        <time>2012-06-07T22:08:41Z</time>
      </trkpt>
      <trkpt lat="44.40355" lon="1.80473">
        <ele>318.63671875</ele>
        <time>2012-06-07T22:09:01Z</time>
      </trkpt>
      <trkpt lat="44.40341" lon="1.8045">
        <ele>320.734375</ele>
        <time>2012-06-07T22:09:21Z</time>
      </trkpt>
      <trkpt lat="44.40337" lon="1.80393">
        <ele>323.8125</ele>
        <time>2012-06-07T22:09:41Z</time>
      </trkpt>
      <trkpt lat="44.40318" lon="1.80394">
        <ele>324.87890625</ele>
        <time>2012-06-07T22:10:01Z</time>
      </trkpt>
      <trkpt lat="44.40286" lon="1.80401">
        <ele>324.6875</ele>
        <time>2012-06-07T22:10:21Z</time>
      </trkpt>
      <trkpt lat="44.4019" lon="1.80276">
        <ele>322.90625</ele>
        <time>2012-06-07T22:10:41Z</time>
      </trkpt>
      <trkpt lat="44.40221" lon="1.80177">
        <ele>324.6640625</ele>
        <time>2012-06-07T22:11:01Z</time>
      </trkpt>
      <trkpt lat="44.40194" lon="1.80148">
        <ele>325.625</ele>
        <time>2012-06-07T22:11:21Z</time>
      </trkpt>
      <trkpt lat="44.40138" lon="1.80053">
        <ele>328.73828125</ele>
        <time>2012-06-07T22:11:41Z</time>
      </trkpt>
      <trkpt lat="44.40137" lon="1.79999">
        <ele>330.08984375</ele>
        <time>2012-06-07T22:12:01Z</time>
      </trkpt>
      <trkpt lat="44.40157" lon="1.79925">
        <ele>328.875</ele>
        <time>2012-06-07T22:12:21Z</time>
      </trkpt>
      <trkpt lat="44.40113" lon="1.79815">
        <ele>329.8203125</ele>
        <time>2012-06-07T22:12:41Z</time>
      </trkpt>
      <trkpt lat="44.40076" lon="1.7978">
        <ele>329.16015625</ele>
        <time>2012-06-07T22:13:01Z</time>
      </trkpt>
      <trkpt lat="44.40056" lon="1.79745">
        <ele>327.0078125</ele>
        <time>2012-06-07T22:13:21Z</time>
      </trkpt>
      <trkpt lat="44.40017" lon="1.79758">
        <ele>324.5234375</ele>
        <time>2012-06-07T22:13:41Z</time>
      </trkpt>
      <trkpt lat="44.39936" lon="1.79839">
        <ele>326.68359375</ele>
        <time>2012-06-07T22:14:01Z</time>
      </trkpt>
      <trkpt lat="44.39897" lon="1.79915">
        <ele>330.6875</ele>
        <time>2012-06-07T22:14:21Z</time>
      </trkpt>
      <trkpt lat="44.39879" lon="1.79993">
        <ele>333.76171875</ele>
        <time>2012-06-07T22:14:41Z</time>
      </trkpt>
      <trkpt lat="44.39867" lon="1.80007">
        <ele>333.0078125</ele>
        <time>2012-06-07T22:15:01Z</time>
      </trkpt>
      <trkpt lat="44.39862" lon="1.80068">
        <ele>334.296875</ele>
        <time>2012-06-07T22:15:21Z</time>
      </trkpt>
      <trkpt lat="44.39827" lon="1.79986">
        <ele>327.01953125</ele>
        <time>2012-06-07T22:15:41Z</time>
      </trkpt>
      <trkpt lat="44.39819" lon="1.79986">
        <ele>326.08984375</ele>
        <time>2012-06-07T22:16:01Z</time>
      </trkpt>
      <trkpt lat="44.39843" lon="1.79865">
        <ele>320.62109375</ele>
        <time>2012-06-07T22:16:21Z</time>
      </trkpt>
      <trkpt lat="44.39907" lon="1.79636">
        <ele>318.06640625</ele>
        <time>2012-06-07T22:16:41Z</time>
      </trkpt>
      <trkpt lat="44.39856" lon="1.79552">
        <ele>323.44921875</ele>
        <time>2012-06-07T22:17:01Z</time>
      </trkpt>
      <trkpt lat="44.39842" lon="1.79501">
        <ele>322.578125</ele>
        <time>2012-06-07T22:17:21Z</time>
      </trkpt>
      <trkpt lat="44.3978" lon="1.7942">
        <ele>322.12109375</ele>
        <time>2012-06-07T22:17:41Z</time>
      </trkpt>
      <trkpt lat="44.39771" lon="1.79368">
        <ele>320.21484375</ele>
        <time>2012-06-07T22:18:01Z</time>
      </trkpt>
      <trkpt lat="44.39766" lon="1.79301">
        <ele>318.53125</ele>
        <time>2012-06-07T22:18:21Z</time>
      </trkpt>
      <trkpt lat="44.39729" lon="1.79132">
        <ele>314.25390625</ele>
        <time>2012-06-07T22:18:41Z</time>
      </trkpt>
      <trkpt lat="44.39663" lon="1.79027">
        <ele>319.06640625</ele>
        <time>2012-06-07T22:19:01Z</time>
      </trkpt>
      <trkpt lat="44.39612" lon="1.78892">
        <ele>321.18359375</ele>
        <time>2012-06-07T22:19:21Z</time>
      </trkpt>
      <trkpt lat="44.39591" lon="1.78767">
        <ele>319.98046875</ele>
        <time>2012-06-07T22:19:41Z</time>
      </trkpt>
      <trkpt lat="44.39598" lon="1.78616">
        <ele>320.796875</ele>
        <time>2012-06-07T22:20:01Z</time>
      </trkpt>
      <trkpt lat="44.39554" lon="1.78532">
        <ele>317.6875</ele>
        <time>2012-06-07T22:20:21Z</time>
      </trkpt>
      <trkpt lat="44.39527" lon="1.78519">
        <ele>315.26953125</ele>
        <time>2012-06-07T22:20:41Z</time>
      </trkpt>
      <trkpt lat="44.39494" lon="1.78453">
        <ele>309.73828125</ele>
        <time>2012-06-07T22:21:01Z</time>
      </trkpt>
      <trkpt lat="44.3945" lon="1.78413">
        <ele>305.78125</ele>
        <time>2012-06-07T22:21:21Z</time>
      </trkpt>
      <trkpt lat="44.3941" lon="1.78142">
        <ele>311.1328125</ele>
        <time>2012-06-07T22:21:41Z</time>
      </trkpt>
      <trkpt lat="44.39413" lon="1.78118">
        <ele>311.24609375</ele>
        <time>2012-06-07T22:22:01Z</time>
      </trkpt>
      <trkpt lat="44.39401" lon="1.78099">
        <ele>311</ele>
        <time>2012-06-07T22:22:21Z</time>
      </trkpt>
      <trkpt lat="44.39399" lon="1.78041">
        <ele>309.55078125</ele>
        <time>2012-06-07T22:22:41Z</time>
      </trkpt>
      <trkpt lat="44.39436" lon="1.77874">
        <ele>306</ele>
        <time>2012-06-07T22:23:01Z</time>
      </trkpt>
      <trkpt lat="44.39449" lon="1.77852">
        <ele>305.76171875</ele>
        <time>2012-06-07T22:23:21Z</time>
      </trkpt>
      <trkpt lat="44.39449" lon="1.77688">
        <ele>300.31640625</ele>
        <time>2012-06-07T22:23:41Z</time>
      </trkpt>
      <trkpt lat="44.39455" lon="1.77659">
        <ele>298.61328125</ele>
        <time>2012-06-07T22:24:01Z</time>
      </trkpt>
      <trkpt lat="44.39432" lon="1.77581">
        <ele>297.13671875</ele>
        <time>2012-06-07T22:24:21Z</time>
      </trkpt>
      <trkpt lat="44.39413" lon="1.77505">
        <ele>299.74609375</ele>
        <time>2012-06-07T22:24:41Z</time>
      </trkpt>
      <trkpt lat="44.39364" lon="1.77443">
        <ele>301.5234375</ele>
        <time>2012-06-07T22:25:01Z</time>
      </trkpt>
      <trkpt lat="44.39348" lon="1.77391">
        <ele>303.1484375</ele>
        <time>2012-06-07T22:25:21Z</time>
      </trkpt>
      <trkpt lat="44.39386" lon="1.77339">
        <ele>302.70703125</ele>
        <time>2012-06-07T22:25:41Z</time>
      </trkpt>
      <trkpt lat="44.39375" lon="1.77151">
        <ele>306.28515625</ele>
        <time>2012-06-07T22:26:01Z</time>
      </trkpt>
      <trkpt lat="44.39358" lon="1.77041">
        <ele>306.90625</ele>
        <time>2012-06-07T22:26:21Z</time>
      </trkpt>
      <trkpt lat="44.39358" lon="1.76976">
        <ele>309.67578125</ele>
        <time>2012-06-07T22:26:41Z</time>
      </trkpt>
      <trkpt lat="44.39369" lon="1.76935">
        <ele>310.8203125</ele>
        <time>2012-06-07T22:27:01Z</time>
      </trkpt>
      <trkpt lat="44.3937" lon="1.76841">
        <ele>315.046875</ele>
        <time>2012-06-07T22:27:21Z</time>
      </trkpt>
      <trkpt lat="44.39379" lon="1.76759">
        <ele>317.796875</ele>
        <time>2012-06-07T22:27:41Z</time>
      </trkpt>
      <trkpt lat="44.3937" lon="1.76619">
        <ele>321.17578125</ele>
        <time>2012-06-07T22:28:01Z</time>
      </trkpt>
      <trkpt lat="44.39354" lon="1.76534">
        <ele>322.109375</ele>
        <time>2012-06-07T22:28:21Z</time>
      </trkpt>
      <trkpt lat="44.39269" lon="1.76391">
        <ele>314.73046875</ele>
        <time>2012-06-07T22:28:41Z</time>
      </trkpt>
      <trkpt lat="44.39235" lon="1.76293">
        <ele>313.6328125</ele>
        <time>2012-06-07T22:29:01Z</time>
      </trkpt>
      <trkpt lat="44.39225" lon="1.76041">
        <ele>316.640625</ele>
        <time>2012-06-07T22:29:21Z</time>
      </trkpt>
      <trkpt lat="44.39211" lon="1.75915">
        <ele>316.94921875</ele>
        <time>2012-06-07T22:29:41Z</time>
      </trkpt>
      <trkpt lat="44.39193" lon="1.75866">
        <ele>316.0390625</ele>
        <time>2012-06-07T22:30:01Z</time>
      </trkpt>
      <trkpt lat="44.39128" lon="1.75774">
        <ele>322.03515625</ele>
        <time>2012-06-07T22:30:21Z</time>
      </trkpt>
      <trkpt lat="44.39091" lon="1.75721">
        <ele>323.1484375</ele>
        <time>2012-06-07T22:30:41Z</time>
      </trkpt>
      <trkpt lat="44.38987" lon="1.7547">
        <ele>311.7734375</ele>
        <time>2012-06-07T22:31:01Z</time>
      </trkpt>
      <trkpt lat="44.38878" lon="1.7525">
        <ele>300.71484375</ele>
        <time>2012-06-07T22:31:21Z</time>
      </trkpt>
      <trkpt lat="44.38835" lon="1.7508">
        <ele>290.7109375</ele>
        <time>2012-06-07T22:31:41Z</time>
      </trkpt>
      <trkpt lat="44.38805" lon="1.75017">
        <ele>289.796875</ele>
        <time>2012-06-07T22:32:01Z</time>
      </trkpt>
      <trkpt lat="44.38753" lon="1.74986">
        <ele>286.6796875</ele>
        <time>2012-06-07T22:32:21Z</time>
      </trkpt>
      <trkpt lat="44.38718" lon="1.74942">
        <ele>282.74609375</ele>
        <time>2012-06-07T22:32:41Z</time>
      </trkpt>
      <trkpt lat="44.38694" lon="1.74876">
        <ele>278.20703125</ele>
        <time>2012-06-07T22:33:01Z</time>
      </trkpt>
      <trkpt lat="44.38711" lon="1.74798">
        <ele>274.07421875</ele>
        <time>2012-06-07T22:33:21Z</time>
      </trkpt>
      <trkpt lat="44.3863" lon="1.7462">
        <ele>271.94921875</ele>
        <time>2012-06-07T22:33:41Z</time>
      </trkpt>
      <trkpt lat="44.38636" lon="1.74521">
        <ele>274.82421875</ele>
        <time>2012-06-07T22:34:01Z</time>
      </trkpt>
      <trkpt lat="44.38541" lon="1.74216">
        <ele>292.66015625</ele>
        <time>2012-06-07T22:34:21Z</time>
      </trkpt>
      <trkpt lat="44.3843" lon="1.74092">
        <ele>294.7421875</ele>
        <time>2012-06-07T22:34:41Z</time>
      </trkpt>
      <trkpt lat="44.38318" lon="1.73722">
        <ele>283.6328125</ele>
        <time>2012-06-07T22:35:01Z</time>
      </trkpt>
      <trkpt lat="44.3826" lon="1.73688">
        <ele>280.1875</ele>
        <time>2012-06-07T22:35:21Z</time>
      </trkpt>
      <trkpt lat="44.38113" lon="1.73713">
        <ele>270.65625</ele>
        <time>2012-06-07T22:35:41Z</time>
      </trkpt>
      <trkpt lat="44.38009" lon="1.73471">
        <ele>277.97265625</ele>
        <time>2012-06-07T22:36:01Z</time>
      </trkpt>
      <trkpt lat="44.37997" lon="1.73333">
        <ele>278.3828125</ele>
        <time>2012-06-07T22:36:21Z</time>
      </trkpt>
      <trkpt lat="44.38014" lon="1.73258">
        <ele>276</ele>
        <time>2012-06-07T22:36:41Z</time>
      </trkpt>
      <trkpt lat="44.37819" lon="1.73156">
        <ele>275.5078125</ele>
        <time>2012-06-07T22:37:01Z</time>
      </trkpt>
      <trkpt lat="44.3779" lon="1.73154">
        <ele>276</ele>
        <time>2012-06-07T22:37:21Z</time>
      </trkpt>
      <trkpt lat="44.3777" lon="1.73108">
        <ele>276.3125</ele>
        <time>2012-06-07T22:37:41Z</time>
      </trkpt>
      <trkpt lat="44.37728" lon="1.73045">
        <ele>278.44921875</ele>
        <time>2012-06-07T22:38:01Z</time>
      </trkpt>
      <trkpt lat="44.37708" lon="1.73027">
        <ele>279.3515625</ele>
        <time>2012-06-07T22:38:21Z</time>
      </trkpt>
      <trkpt lat="44.3768" lon="1.72974">
        <ele>281</ele>
        <time>2012-06-07T22:38:41Z</time>
      </trkpt>
      <trkpt lat="44.37878" lon="1.72886">
        <ele>275</ele>
        <time>2012-06-07T22:39:01Z</time>
      </trkpt>
      <trkpt lat="44.37985" lon="1.72863">
        <ele>276</ele>
        <time>2012-06-07T22:39:21Z</time>
      </trkpt>
      <trkpt lat="44.38006" lon="1.72868">
        <ele>275.984375</ele>
        <time>2012-06-07T22:39:41Z</time>
      </trkpt>
      <trkpt lat="44.38005" lon="1.72845">
        <ele>276.4296875</ele>
        <time>2012-06-07T22:40:01Z</time>
      </trkpt>
      <trkpt lat="44.37975" lon="1.7272">
        <ele>280.296875</ele>
        <time>2012-06-07T22:40:21Z</time>
      </trkpt>
      <trkpt lat="44.37881" lon="1.72469">
        <ele>280.1640625</ele>
        <time>2012-06-07T22:40:41Z</time>
      </trkpt>
      <trkpt lat="44.37925" lon="1.72195">
        <ele>267.7421875</ele>
        <time>2012-06-07T22:41:01Z</time>
      </trkpt>
      <trkpt lat="44.37983" lon="1.72088">
        <ele>270.703125</ele>
        <time>2012-06-07T22:41:21Z</time>
      </trkpt>
      <trkpt lat="44.37977" lon="1.71982">
        <ele>263.84375</ele>
        <time>2012-06-07T22:41:41Z</time>
      </trkpt>
      <trkpt lat="44.3798" lon="1.71941">
        <ele>261.671875</ele>
        <time>2012-06-07T22:42:01Z</time>
      </trkpt>
      <trkpt lat="44.38013" lon="1.71839">
        <ele>258.03125</ele>
        <time>2012-06-07T22:42:21Z</time>
      </trkpt>
      <trkpt lat="44.37988" lon="1.71684">
        <ele>265.66796875</ele>
        <time>2012-06-07T22:42:41Z</time>
      </trkpt>
      <trkpt lat="44.37965" lon="1.71638">
        <ele>268.15625</ele>
        <time>2012-06-07T22:43:01Z</time>
      </trkpt>
      <trkpt lat="44.37942" lon="1.71533">
        <ele>272.04296875</ele>
        <time>2012-06-07T22:43:21Z</time>
      </trkpt>
      <trkpt lat="44.37652" lon="1.71696">
        <ele>275.0390625</ele>
        <time>2012-06-07T22:43:41Z</time>
      </trkpt>
      <trkpt lat="44.37566" lon="1.71731">
        <ele>276.27734375</ele>
        <time>2012-06-07T22:44:01Z</time>
      </trkpt>
      <trkpt lat="44.37516" lon="1.71768">
        <ele>276.625</ele>
        <time>2012-06-07T22:44:21Z</time>
      </trkpt>
      <trkpt lat="44.37374" lon="1.71835">
        <ele>279.21484375</ele>
        <time>2012-06-07T22:44:41Z</time>
      </trkpt>
      <trkpt lat="44.37263" lon="1.71951">
        <ele>284.21484375</ele>
        <time>2012-06-07T22:45:01Z</time>
      </trkpt>
      <trkpt lat="44.3721" lon="1.72017">
        <ele>286.109375</ele>
        <time>2012-06-07T22:45:21Z</time>
      </trkpt>
      <trkpt lat="44.37128" lon="1.72058">
        <ele>289.14453125</ele>
        <time>2012-06-07T22:45:41Z</time>
      </trkpt>
      <trkpt lat="44.37075" lon="1.72069">
        <ele>288.9921875</ele>
        <time>2012-06-07T22:46:01Z</time>
      </trkpt>
      <trkpt lat="44.3691" lon="1.72179">
        <ele>287.74609375</ele>
        <time>2012-06-07T22:46:21Z</time>
      </trkpt>
      <trkpt lat="44.36864" lon="1.72204">
        <ele>287.9453125</ele>
        <time>2012-06-07T22:46:41Z</time>
      </trkpt>
      <trkpt lat="44.36797" lon="1.72255">
        <ele>289.9921875</ele>
        <time>2012-06-07T22:47:01Z</time>
      </trkpt>
      <trkpt lat="44.36732" lon="1.72293">
        <ele>293.33203125</ele>
        <time>2012-06-07T22:47:21Z</time>
      </trkpt>
      <trkpt lat="44.3664" lon="1.7235">
        <ele>293.01171875</ele>
        <time>2012-06-07T22:47:41Z</time>
      </trkpt>
      <trkpt lat="44.36564" lon="1.72322">
        <ele>294.6171875</ele>
        <time>2012-06-07T22:48:01Z</time>
      </trkpt>
      <trkpt lat="44.36455" lon="1.7227">
        <ele>296.21875</ele>
        <time>2012-06-07T22:48:21Z</time>
      </trkpt>
      <trkpt lat="44.36406" lon="1.7223">
        <ele>297.65625</ele>
        <time>2012-06-07T22:48:41Z</time>
      </trkpt>
      <trkpt lat="44.36384" lon="1.72233">
        <ele>295.88671875</ele>
        <time>2012-06-07T22:49:01Z</time>
      </trkpt>
      <trkpt lat="44.36348" lon="1.72272">
        <ele>293.109375</ele>
        <time>2012-06-07T22:49:21Z</time>
      </trkpt>
      <trkpt lat="44.36208" lon="1.7225">
        <ele>301.6484375</ele>
        <time>2012-06-07T22:49:41Z</time>
      </trkpt>
      <trkpt lat="44.36171" lon="1.72252">
        <ele>303.6875</ele>
        <time>2012-06-07T22:50:01Z</time>
      </trkpt>
      <trkpt lat="44.36132" lon="1.72263">
        <ele>305.37109375</ele>
        <time>2012-06-07T22:50:21Z</time>
      </trkpt>
      <trkpt lat="44.36082" lon="1.72264">
        <ele>308.16796875</ele>
        <time>2012-06-07T22:50:41Z</time>
      </trkpt>
      <trkpt lat="44.36097" lon="1.72188">
        <ele>310.765625</ele>
        <time>2012-06-07T22:51:01Z</time>
      </trkpt>
      <trkpt lat="44.36099" lon="1.72048">
        <ele>308.66015625</ele>
        <time>2012-06-07T22:51:21Z</time>
      </trkpt>
      <trkpt lat="44.36036" lon="1.71953">
        <ele>308.86328125</ele>
        <time>2012-06-07T22:51:41Z</time>
      </trkpt>
      <trkpt lat="44.3602" lon="1.71854">
        <ele>311.9921875</ele>
        <time>2012-06-07T22:52:01Z</time>
      </trkpt>
      <trkpt lat="44.36068" lon="1.71806">
        <ele>310.45703125</ele>
        <time>2012-06-07T22:52:21Z</time>
      </trkpt>
      <trkpt lat="44.36184" lon="1.71654">
        <ele>309.65234375</ele>
        <time>2012-06-07T22:52:41Z</time>
      </trkpt>
      <trkpt lat="44.36206" lon="1.71639">
        <ele>310.7109375</ele>
        <time>2012-06-07T22:53:01Z</time>
      </trkpt>
      <trkpt lat="44.36199" lon="1.71625">
        <ele>310.4765625</ele>
        <time>2012-06-07T22:53:21Z</time>
      </trkpt>
      <trkpt lat="44.3624" lon="1.71491">
        <ele>318.46484375</ele>
        <time>2012-06-07T22:53:41Z</time>
      </trkpt>
      <trkpt lat="44.36277" lon="1.71408">
        <ele>321.28125</ele>
        <time>2012-06-07T22:54:01Z</time>
      </trkpt>
      <trkpt lat="44.36324" lon="1.7105">
        <ele>313.07421875</ele>
        <time>2012-06-07T22:54:21Z</time>
      </trkpt>
      <trkpt lat="44.3636" lon="1.70945">
        <ele>310.38671875</ele>
        <time>2012-06-07T22:54:41Z</time>
      </trkpt>
      <trkpt lat="44.36334" lon="1.70741">
        <ele>309.37109375</ele>
        <time>2012-06-07T22:55:01Z</time>
      </trkpt>
      <trkpt lat="44.3635" lon="1.70623">
        <ele>308.9296875</ele>
        <time>2012-06-07T22:55:21Z</time>
      </trkpt>
      <trkpt lat="44.36478" lon="1.70373">
        <ele>298.6484375</ele>
        <time>2012-06-07T22:55:41Z</time>
      </trkpt>
      <trkpt lat="44.36529" lon="1.70251">
        <ele>292.38671875</ele>
        <time>2012-06-07T22:56:01Z</time>
      </trkpt>
      <trkpt lat="44.36539" lon="1.70155">
        <ele>292.98046875</ele>
        <time>2012-06-07T22:56:21Z</time>
      </trkpt>
      <trkpt lat="44.36529" lon="1.70111">
        <ele>293.44921875</ele>
        <time>2012-06-07T22:56:41Z</time>
      </trkpt>
      <trkpt lat="44.36532" lon="1.69818">
        <ele>289.1796875</ele>
        <time>2012-06-07T22:57:01Z</time>
      </trkpt>
      <trkpt lat="44.36542" lon="1.69742">
        <ele>287.18359375</ele>
        <time>2012-06-07T22:57:21Z</time>
      </trkpt>
      <trkpt lat="44.36534" lon="1.69619">
        <ele>288.4609375</ele>
        <time>2012-06-07T22:57:41Z</time>
      </trkpt>
      <trkpt lat="44.36549" lon="1.69525">
        <ele>288.30078125</ele>
        <time>2012-06-07T22:58:01Z</time>
      </trkpt>
      <trkpt lat="44.36506" lon="1.69385">
        <ele>294.48828125</ele>
        <time>2012-06-07T22:58:21Z</time>
      </trkpt>
      <trkpt lat="44.36494" lon="1.69371">
        <ele>294.8984375</ele>
        <time>2012-06-07T22:58:41Z</time>
      </trkpt>
      <trkpt lat="44.36477" lon="1.69265">
        <ele>293.2578125</ele>
        <time>2012-06-07T22:59:01Z</time>
      </trkpt>
      <trkpt lat="44.36515" lon="1.69174">
        <ele>290.83203125</ele>
        <time>2012-06-07T22:59:21Z</time>
      </trkpt>
      <trkpt lat="44.36452" lon="1.69078">
        <ele>290.82421875</ele>
        <time>2012-06-07T22:59:41Z</time>
      </trkpt>
      <trkpt lat="44.36433" lon="1.68875">
        <ele>285.390625</ele>
        <time>2012-06-07T23:00:01Z</time>
      </trkpt>
      <trkpt lat="44.36454" lon="1.68758">
        <ele>285.37109375</ele>
        <time>2012-06-07T23:00:21Z</time>
      </trkpt>
      <trkpt lat="44.36506" lon="1.68619">
        <ele>286.50390625</ele>
        <time>2012-06-07T23:00:41Z</time>
      </trkpt>
      <trkpt lat="44.36374" lon="1.68451">
        <ele>294.24609375</ele>
        <time>2012-06-07T23:01:01Z</time>
      </trkpt>
      <trkpt lat="44.36308" lon="1.68382">
        <ele>301.07421875</ele>
        <time>2012-06-07T23:01:21Z</time>
      </trkpt>
      <trkpt lat="44.36271" lon="1.68322">
        <ele>300.265625</ele>
        <time>2012-06-07T23:01:41Z</time>
      </trkpt>
      <trkpt lat="44.3615" lon="1.68178">
        <ele>294.8046875</ele>
        <time>2012-06-07T23:02:01Z</time>
      </trkpt>
      <trkpt lat="44.36048" lon="1.68087">
        <ele>290.9921875</ele>
        <time>2012-06-07T23:02:21Z</time>
      </trkpt>
      <trkpt lat="44.35807" lon="1.67815">
        <ele>300.66796875</ele>
        <time>2012-06-07T23:02:41Z</time>
      </trkpt>
      <trkpt lat="44.35632" lon="1.67608">
        <ele>304.9375</ele>
        <time>2012-06-07T23:03:01Z</time>
      </trkpt>
      <trkpt lat="44.35541" lon="1.67527">
        <ele>303.1171875</ele>
        <time>2012-06-07T23:03:21Z</time>
      </trkpt>
      <trkpt lat="44.35494" lon="1.67518">
        <ele>301.67578125</ele>
        <time>2012-06-07T23:03:41Z</time>
      </trkpt>
      <trkpt lat="44.35383" lon="1.67412">
        <ele>305.4375</ele>
        <time>2012-06-07T23:04:01Z</time>
      </trkpt>
      <trkpt lat="44.35328" lon="1.67317">
        <ele>307</ele>
        <time>2012-06-07T23:04:21Z</time>
      </trkpt>
      <trkpt lat="44.35259" lon="1.67274">
        <ele>309.81640625</ele>
        <time>2012-06-07T23:04:41Z</time>
      </trkpt>
      <trkpt lat="44.35208" lon="1.6726">
        <ele>312.44140625</ele>
        <time>2012-06-07T23:05:01Z</time>
      </trkpt>
      <trkpt lat="44.35127" lon="1.672">
        <ele>316</ele>
        <time>2012-06-07T23:05:21Z</time>
      </trkpt>
      <trkpt lat="44.35103" lon="1.67222">
        <ele>316</ele>
        <time>2012-06-07T23:05:41Z</time>
      </trkpt>
      <trkpt lat="44.35097" lon="1.67197">
        <ele>316</ele>
        <time>2012-06-07T23:06:01Z</time>
      </trkpt>
      <trkpt lat="44.34998" lon="1.67102">
        <ele>315.5625</ele>
        <time>2012-06-07T23:06:21Z</time>
      </trkpt>
      <trkpt lat="44.34993" lon="1.67096">
        <ele>315.1484375</ele>
        <time>2012-06-07T23:06:41Z</time>
      </trkpt>
      <trkpt lat="44.34856" lon="1.66973">
        <ele>314.59765625</ele>
        <time>2012-06-07T23:07:01Z</time>
      </trkpt>
      <trkpt lat="44.34791" lon="1.66872">
        <ele>314</ele>
        <time>2012-06-07T23:07:21Z</time>
      </trkpt>
      <trkpt lat="44.34725" lon="1.66757">
        <ele>313</ele>
        <time>2012-06-07T23:07:41Z</time>
      </trkpt>
      <trkpt lat="44.34721" lon="1.66725">
        <ele>312.7578125</ele>
        <time>2012-06-07T23:08:01Z</time>
      </trkpt>
      <trkpt lat="44.34707" lon="1.6669">
        <ele>312.13671875</ele>
        <time>2012-06-07T23:08:21Z</time>
      </trkpt>
      <trkpt lat="44.34725" lon="1.66558">
        <ele>311.4609375</ele>
        <time>2012-06-07T23:08:41Z</time>
      </trkpt>
      <trkpt lat="44.34678" lon="1.66329">
        <ele>311</ele>
        <time>2012-06-07T23:09:01Z</time>
      </trkpt>
      <trkpt lat="44.34641" lon="1.66088">
        <ele>309</ele>
        <time>2012-06-07T23:09:21Z</time>
      </trkpt>
      <trkpt lat="44.3463" lon="1.6606">
        <ele>309</ele>
        <time>2012-06-07T23:09:41Z</time>
      </trkpt>
      <trkpt lat="44.34606" lon="1.65916">
        <ele>308</ele>
        <time>2012-06-07T23:10:01Z</time>
      </trkpt>
      <trkpt lat="44.34498" lon="1.65663">
        <ele>307.40625</ele>
        <time>2012-06-07T23:10:21Z</time>
      </trkpt>
      <trkpt lat="44.34597" lon="1.65298">
        <ele>299.58984375</ele>
        <time>2012-06-07T23:10:41Z</time>
      </trkpt>
      <trkpt lat="44.34711" lon="1.64822">
        <ele>298.91796875</ele>
        <time>2012-06-07T23:11:01Z</time>
      </trkpt>
      <trkpt lat="44.34708" lon="1.6468">
        <ele>300.9296875</ele>
        <time>2012-06-07T23:11:21Z</time>
      </trkpt>
      <trkpt lat="44.34642" lon="1.64443">
        <ele>300.6171875</ele>
        <time>2012-06-07T23:11:41Z</time>
      </trkpt>
      <trkpt lat="44.34601" lon="1.64241">
        <ele>303.75</ele>
        <time>2012-06-07T23:12:01Z</time>
      </trkpt>
      <trkpt lat="44.34519" lon="1.64091">
        <ele>309.125</ele>
        <time>2012-06-07T23:12:21Z</time>
      </trkpt>
      <trkpt lat="44.34448" lon="1.63787">
        <ele>309.609375</ele>
        <time>2012-06-07T23:12:41Z</time>
      </trkpt>
      <trkpt lat="44.34438" lon="1.63538">
        <ele>311</ele>
        <time>2012-06-07T23:13:01Z</time>
      </trkpt>
      <trkpt lat="44.34479" lon="1.63251">
        <ele>309.31640625</ele>
        <time>2012-06-07T23:13:21Z</time>
      </trkpt>
      <trkpt lat="44.34529" lon="1.63061">
        <ele>304.7734375</ele>
        <time>2012-06-07T23:13:41Z</time>
      </trkpt>
      <trkpt lat="44.34614" lon="1.62833">
        <ele>301.21484375</ele>
        <time>2012-06-07T23:14:01Z</time>
      </trkpt>
      <trkpt lat="44.34703" lon="1.62514">
        <ele>292.0703125</ele>
        <time>2012-06-07T23:14:21Z</time>
      </trkpt>
      <trkpt lat="44.34709" lon="1.62218">
        <ele>282.2109375</ele>
        <time>2012-06-07T23:14:41Z</time>
      </trkpt>
      <trkpt lat="44.3471" lon="1.61712">
        <ele>262.15625</ele>
        <time>2012-06-07T23:15:01Z</time>
      </trkpt>
      <trkpt lat="44.34728" lon="1.6165">
        <ele>259.9453125</ele>
        <time>2012-06-07T23:15:21Z</time>
      </trkpt>
      <trkpt lat="44.34729" lon="1.61566">
        <ele>259.0390625</ele>
        <time>2012-06-07T23:15:41Z</time>
      </trkpt>
      <trkpt lat="44.3481" lon="1.61415">
        <ele>261.7421875</ele>
        <time>2012-06-07T23:16:01Z</time>
      </trkpt>
      <trkpt lat="44.34827" lon="1.6115">
        <ele>274.06640625</ele>
        <time>2012-06-07T23:16:21Z</time>
      </trkpt>
      <trkpt lat="44.34798" lon="1.60945">
        <ele>277.00390625</ele>
        <time>2012-06-07T23:16:41Z</time>
      </trkpt>
      <trkpt lat="44.34785" lon="1.60578">
        <ele>277</ele>
        <time>2012-06-07T23:17:01Z</time>
      </trkpt>
      <trkpt lat="44.34811" lon="1.60428">
        <ele>274.48828125</ele>
        <time>2012-06-07T23:17:21Z</time>
      </trkpt>
      <trkpt lat="44.34842" lon="1.60282">
        <ele>270.08203125</ele>
        <time>2012-06-07T23:17:41Z</time>
      </trkpt>
      <trkpt lat="44.34933" lon="1.60041">
        <ele>266.01171875</ele>
        <time>2012-06-07T23:18:01Z</time>
      </trkpt>
      <trkpt lat="44.35464" lon="1.59074">
        <ele>274.84375</ele>
        <time>2012-06-07T23:18:21Z</time>
      </trkpt>
      <trkpt lat="44.3555" lon="1.58845">
        <ele>279.17578125</ele>
        <time>2012-06-07T23:18:41Z</time>
      </trkpt>
      <trkpt lat="44.35606" lon="1.58584">
        <ele>278.44921875</ele>
        <time>2012-06-07T23:19:01Z</time>
      </trkpt>
      <trkpt lat="44.35634" lon="1.58331">
        <ele>275.34375</ele>
        <time>2012-06-07T23:19:21Z</time>
      </trkpt>
      <trkpt lat="44.35652" lon="1.58051">
        <ele>268</ele>
        <time>2012-06-07T23:19:41Z</time>
      </trkpt>
      <trkpt lat="44.3564" lon="1.57949">
        <ele>267.66796875</ele>
        <time>2012-06-07T23:20:01Z</time>
      </trkpt>
      <trkpt lat="44.35672" lon="1.57804">
        <ele>269.109375</ele>
        <time>2012-06-07T23:20:21Z</time>
      </trkpt>
      <trkpt lat="44.35922" lon="1.5716">
        <ele>265.6953125</ele>
        <time>2012-06-07T23:20:41Z</time>
      </trkpt>
    </trkseg>
  </trk>
</gpx>